Xianyang, China
Current Conditions -  °F | °C
As of 11:00 PM on Saturday 25 Oct 2014 (Local Time) from ZLXY Reporting Station
Haze Haze  
Wind Chill: 50°   Ceiling: Unl
Heat Index: 50°   Visibility: 2.1mi
Dew Point: 48°   Wind: 2mph
Humidity: 94%   Direction: NA
Pressure: 29.97"   Gusts: NA
Location:  34.37°N, 108.7°E
Report Text: ZLXY 251500Z VRB01MPS 3500 BR NSC 10/09 Q1015 NOSIG
Loading
Personal Weather Stations






























Interactive Weather Map
Tropical Storm Tracking
New forecast layout! Learn more

10-Day Weather Forecast

Advertisements
Track Severe Weather on mobile